Time;durP1;ratioP1;P1;durP2;ratioP2;P2;SDS_P1;SDS_P2;PMS_P1;PMS_P2;Temp;Humidity;BMP_temperature;BMP_pressure;BME280_temperature;BME280_humidity;BME280_pressure;Samples;Min_cycle;Max_cycle;Signal;HPM_P1;HPM_P2
2022/02/28 00:00:12;;;;;;;27.40;25.15;;;;;;;;;;4980309;28;20234;-82
2022/02/28 00:02:39;;;;;;;27.38;25.20;;;;;;;;;;4997841;28;20195;-82
2022/02/28 00:05:07;;;;;;;29.05;26.60;;;;;;;;;;4997422;28;20692;-82
2022/02/28 00:07:36;;;;;;;29.02;26.35;;;;;;;;;;4997856;28;20201;-82
2022/02/28 00:10:04;;;;;;;27.63;25.30;;;;;;;;;;4997427;28;20187;-82
2022/02/28 00:12:31;;;;;;;27.38;25.05;;;;;;;;;;4997816;28;20191;-82
2022/02/28 00:14:59;;;;;;;27.13;25.02;;;;;;;;;;4997387;28;20202;-83
2022/02/28 00:17:26;;;;;;;28.75;26.27;;;;;;;;;;4997516;28;20187;-82
2022/02/28 00:19:53;;;;;;;27.73;25.55;;;;;;;;;;4997607;28;20223;-82
2022/02/28 00:22:21;;;;;;;27.52;25.48;;;;;;;;;;4997485;28;20202;-82
2022/02/28 00:24:50;;;;;;;28.50;26.10;;;;;;;;;;4997543;28;20587;-82
2022/02/28 00:27:17;;;;;;;28.30;26.13;;;;;;;;;;4997318;28;20194;-82
2022/02/28 00:29:44;;;;;;;27.33;25.23;;;;;;;;;;4979598;28;20210;-82
2022/02/28 00:32:12;;;;;;;28.83;25.80;;;;;;;;;;4997578;28;20592;-82
2022/02/28 00:34:39;;;;;;;27.48;25.15;;;;;;;;;;4996874;28;20198;-81
2022/02/28 00:37:07;;;;;;;27.65;25.05;;;;;;;;;;4997473;28;20195;-82
2022/02/28 00:39:35;;;;;;;27.58;25.05;;;;;;;;;;4996898;28;20673;-82
2022/02/28 00:42:04;;;;;;;27.55;25.23;;;;;;;;;;4997046;28;20226;-82
2022/02/28 00:44:31;;;;;;;25.83;24.02;;;;;;;;;;4996648;28;20210;-81
2022/02/28 00:46:59;;;;;;;26.25;24.05;;;;;;;;;;4979020;28;20202;-82
2022/02/28 00:49:27;;;;;;;26.70;24.60;;;;;;;;;;4979278;28;20207;-81
2022/02/28 00:51:55;;;;;;;26.77;24.77;;;;;;;;;;4996782;28;20218;-82
2022/02/28 00:54:22;;;;;;;26.05;24.10;;;;;;;;;;4996669;28;20195;-82
2022/02/28 00:56:49;;;;;;;26.23;23.48;;;;;;;;;;4979406;28;20186;-82
2022/02/28 00:59:18;;;;;;;27.05;24.65;;;;;;;;;;4996672;28;20253;-82
2022/02/28 01:01:45;;;;;;;26.70;24.77;;;;;;;;;;4996524;28;20222;-82
2022/02/28 01:04:13;;;;;;;26.10;23.85;;;;;;;;;;4996539;28;20286;-82
2022/02/28 01:06:40;;;;;;;27.65;25.33;;;;;;;;;;4996033;28;20211;-81
2022/02/28 01:09:08;;;;;;;25.60;23.60;;;;;;;;;;4996283;28;20186;-82
2022/02/28 01:11:35;;;;;;;26.20;24.30;;;;;;;;;;4996075;28;20206;-82
2022/02/28 01:14:04;;;;;;;26.13;24.23;;;;;;;;;;4979297;28;20194;-82
2022/02/28 01:16:32;;;;;;;27.55;24.92;;;;;;;;;;4996598;28;20194;-81
2022/02/28 01:19:00;;;;;;;26.67;24.58;;;;;;;;;;4996306;28;20191;-81
2022/02/28 01:21:27;;;;;;;27.48;25.15;;;;;;;;;;4996376;28;20222;-82
2022/02/28 01:23:55;;;;;;;26.73;24.52;;;;;;;;;;4996333;28;20195;-82
2022/02/28 01:26:22;;;;;;;26.08;24.17;;;;;;;;;;4995951;28;20194;-82
2022/02/28 01:28:49;;;;;;;25.75;23.80;;;;;;;;;;4996507;28;20187;-81
2022/02/28 01:31:17;;;;;;;26.30;24.10;;;;;;;;;;4995754;28;20230;-82
2022/02/28 01:33:46;;;;;;;25.67;23.83;;;;;;;;;;4996123;28;20191;-82
2022/02/28 01:36:13;;;;;;;25.58;23.65;;;;;;;;;;4996063;28;20191;-82
2022/02/28 01:38:41;;;;;;;25.60;23.70;;;;;;;;;;4995490;28;20203;-82
2022/02/28 01:41:08;;;;;;;26.33;24.23;;;;;;;;;;4995476;28;20242;-82
2022/02/28 01:43:35;;;;;;;28.40;25.75;;;;;;;;;;4995671;28;20222;-80
2022/02/28 01:46:03;;;;;;;27.13;24.88;;;;;;;;;;4978391;28;20231;-82
2022/02/28 01:48:30;;;;;;;26.50;24.60;;;;;;;;;;4995820;28;20226;-82
2022/02/28 01:50:59;;;;;;;26.35;24.20;;;;;;;;;;4978087;28;20202;-82
2022/02/28 01:53:28;;;;;;;25.60;23.50;;;;;;;;;;4995236;28;20191;-82
2022/02/28 01:55:55;;;;;;;26.23;23.92;;;;;;;;;;4995472;28;20300;-82
2022/02/28 01:58:23;;;;;;;24.90;23.10;;;;;;;;;;4994945;28;20214;-82
2022/02/28 02:00:50;;;;;;;26.17;24.20;;;;;;;;;;4977856;28;20281;-80
2022/02/28 02:03:17;;;;;;;25.90;24.10;;;;;;;;;;4995532;28;20225;-82
2022/02/28 02:05:46;;;;;;;26.83;24.73;;;;;;;;;;4995479;28;20257;-82
2022/02/28 02:08:14;;;;;;;25.00;23.10;;;;;;;;;;4995374;28;20198;-82
2022/02/28 02:10:45;;;;;;;24.23;22.73;;;;;;;;;;4995710;28;20575;-82
2022/02/28 02:13:13;;;;;;;26.08;23.98;;;;;;;;;;4995490;28;20521;-82
2022/02/28 02:15:42;;;;;;;24.65;22.60;;;;;;;;;;4995022;28;20191;-80
2022/02/28 02:18:09;;;;;;;27.02;24.85;;;;;;;;;;4977950;28;20198;-82
2022/02/28 02:20:39;;;;;;;25.25;22.75;;;;;;;;;;4995117;28;20215;-81
2022/02/28 02:23:07;;;;;;;26.50;24.35;;;;;;;;;;4995173;28;20203;-82
2022/02/28 02:25:34;;;;;;;25.13;23.10;;;;;;;;;;4994766;28;20202;-82
2022/02/28 02:28:02;;;;;;;26.35;24.15;;;;;;;;;;4994876;28;20210;-82
2022/02/28 02:30:29;;;;;;;26.13;24.08;;;;;;;;;;4995155;28;20198;-82
2022/02/28 02:32:57;;;;;;;26.52;24.48;;;;;;;;;;4995114;28;20190;-82
2022/02/28 02:35:24;;;;;;;26.63;24.73;;;;;;;;;;4994976;28;20652;-83
2022/02/28 02:37:53;;;;;;;28.23;25.73;;;;;;;;;;4994733;28;20290;-82
2022/02/28 02:40:21;;;;;;;26.55;24.48;;;;;;;;;;4994682;28;20554;-81
2022/02/28 02:42:48;;;;;;;25.92;23.95;;;;;;;;;;4994484;28;20584;-81
2022/02/28 02:45:16;;;;;;;27.00;24.90;;;;;;;;;;4994259;28;20246;-81
2022/02/28 02:47:43;;;;;;;25.20;23.25;;;;;;;;;;4994708;28;20629;-82
2022/02/28 02:50:10;;;;;;;25.88;23.98;;;;;;;;;;4977351;28;20619;-82
2022/02/28 02:52:38;;;;;;;27.05;24.77;;;;;;;;;;4994724;28;20198;-82
2022/02/28 02:55:08;;;;;;;26.45;24.55;;;;;;;;;;4994454;28;20194;-82
2022/02/28 02:57:36;;;;;;;27.15;25.13;;;;;;;;;;4994785;28;20191;-81
2022/02/28 03:00:07;;;;;;;26.38;24.33;;;;;;;;;;4994474;28;20195;-82
2022/02/28 03:02:34;;;;;;;26.42;24.27;;;;;;;;;;4994341;28;20323;-82
2022/02/28 03:05:02;;;;;;;25.45;23.58;;;;;;;;;;4994838;28;20261;-82
2022/02/28 03:07:29;;;;;;;26.73;24.50;;;;;;;;;;4994468;28;20195;-82
2022/02/28 03:09:56;;;;;;;26.35;24.27;;;;;;;;;;4994139;28;20195;-81
2022/02/28 03:12:25;;;;;;;26.15;24.10;;;;;;;;;;4994152;28;20195;-82
2022/02/28 03:14:53;;;;;;;25.98;23.77;;;;;;;;;;4994017;28;20195;-82
2022/02/28 03:17:20;;;;;;;25.00;23.10;;;;;;;;;;4994300;28;20202;-82
2022/02/28 03:19:47;;;;;;;25.48;23.58;;;;;;;;;;4994431;28;20191;-82
2022/02/28 03:22:15;;;;;;;25.70;23.80;;;;;;;;;;4994017;28;20219;-82
2022/02/28 03:24:42;;;;;;;26.63;24.42;;;;;;;;;;4994178;28;20202;-81
2022/02/28 03:27:09;;;;;;;25.70;23.52;;;;;;;;;;4994158;28;20202;-82
2022/02/28 03:29:38;;;;;;;25.77;23.98;;;;;;;;;;4994066;28;20202;-82
2022/02/28 03:32:06;;;;;;;26.60;24.48;;;;;;;;;;4994175;28;20198;-82
2022/02/28 03:34:34;;;;;;;26.17;23.98;;;;;;;;;;4993668;28;20195;-82
2022/02/28 03:37:01;;;;;;;26.92;24.77;;;;;;;;;;4994195;28;20202;-81
2022/02/28 03:39:28;;;;;;;27.13;24.98;;;;;;;;;;4994204;28;20195;-80
2022/02/28 03:41:56;;;;;;;25.27;23.23;;;;;;;;;;4993975;28;20238;-81
2022/02/28 03:44:24;;;;;;;26.30;24.10;;;;;;;;;;4993533;28;20710;-81
2022/02/28 03:46:53;;;;;;;25.75;23.65;;;;;;;;;;4993773;28;20187;-82
2022/02/28 03:49:21;;;;;;;25.55;23.65;;;;;;;;;;4993864;28;20195;-82
2022/02/28 03:51:48;;;;;;;25.13;23.17;;;;;;;;;;4993886;28;20190;-81
2022/02/28 03:54:16;;;;;;;24.65;22.75;;;;;;;;;;4993683;28;20656;-81
2022/02/28 03:56:44;;;;;;;27.08;24.70;;;;;;;;;;4994058;28;20541;-82
2022/02/28 03:59:12;;;;;;;24.38;22.55;;;;;;;;;;4976674;28;20548;-82
2022/02/28 04:01:40;;;;;;;27.38;24.83;;;;;;;;;;4993743;28;20223;-82
2022/02/28 04:04:10;;;;;;;26.83;24.58;;;;;;;;;;4993577;28;20213;-82
2022/02/28 04:06:37;;;;;;;25.55;23.55;;;;;;;;;;4976319;28;20293;-82
2022/02/28 04:09:05;;;;;;;26.45;24.10;;;;;;;;;;4994013;28;20191;-82
2022/02/28 04:11:33;;;;;;;26.70;24.45;;;;;;;;;;4994135;28;20218;-82
2022/02/28 04:14:00;;;;;;;26.98;24.50;;;;;;;;;;4993797;28;20225;-82
2022/02/28 04:16:28;;;;;;;26.52;24.23;;;;;;;;;;4993896;28;20282;-82
2022/02/28 04:18:55;;;;;;;25.67;23.52;;;;;;;;;;4994196;28;20229;-82
2022/02/28 04:21:24;;;;;;;26.10;24.13;;;;;;;;;;4993854;28;20218;-82
2022/02/28 04:23:52;;;;;;;26.75;24.40;;;;;;;;;;4979964;28;20719;-82
2022/02/28 04:26:20;;;;;;;27.90;25.23;;;;;;;;;;4997677;28;20191;-82
2022/02/28 04:28:47;;;;;;;26.55;24.55;;;;;;;;;;4997274;28;20195;-82
2022/02/28 04:31:15;;;;;;;27.73;25.38;;;;;;;;;;4979628;28;20261;-82
2022/02/28 04:33:42;;;;;;;25.85;23.80;;;;;;;;;;4997324;28;20195;-82
2022/02/28 04:36:09;;;;;;;27.05;24.92;;;;;;;;;;4997049;28;20202;-82
2022/02/28 04:38:38;;;;;;;24.98;22.90;;;;;;;;;;4997202;28;20190;-82
2022/02/28 04:41:05;;;;;;;27.83;25.67;;;;;;;;;;4996832;28;20277;-82
2022/02/28 04:43:33;;;;;;;26.50;24.30;;;;;;;;;;4996957;28;20199;-82
2022/02/28 04:46:00;;;;;;;27.00;24.80;;;;;;;;;;4996693;28;20254;-82
2022/02/28 04:48:27;;;;;;;28.95;26.38;;;;;;;;;;4997181;28;20191;-81
2022/02/28 04:50:56;;;;;;;26.13;24.33;;;;;;;;;;4997148;28;20194;-82
2022/02/28 04:53:23;;;;;;;28.05;25.73;;;;;;;;;;4997039;28;20187;-82
2022/02/28 04:55:53;;;;;;;26.60;24.52;;;;;;;;;;4997124;28;20633;-81
2022/02/28 04:58:20;;;;;;;27.55;25.00;;;;;;;;;;4996902;28;20195;-81
2022/02/28 05:00:48;;;;;;;25.80;23.42;;;;;;;;;;4996421;28;20653;-82
2022/02/28 05:03:16;;;;;;;26.50;24.30;;;;;;;;;;4979265;28;20608;-83
2022/02/28 05:05:43;;;;;;;25.17;23.25;;;;;;;;;;4996567;28;20598;-83
2022/02/28 05:08:10;;;;;;;26.58;24.23;;;;;;;;;;4996359;28;20198;-81
2022/02/28 05:10:38;;;;;;;25.63;23.33;;;;;;;;;;4996822;28;20198;-82
2022/02/28 05:13:07;;;;;;;27.85;25.60;;;;;;;;;;4996768;28;20568;-83
2022/02/28 05:15:34;;;;;;;26.63;24.73;;;;;;;;;;4996525;28;20633;-82
2022/02/28 05:18:01;;;;;;;27.70;25.40;;;;;;;;;;4996226;28;20198;-83
2022/02/28 05:20:29;;;;;;;26.63;24.63;;;;;;;;;;4996662;28;20250;-82
2022/02/28 05:22:56;;;;;;;27.20;25.00;;;;;;;;;;4996222;28;20719;-82
2022/02/28 05:25:24;;;;;;;26.25;24.35;;;;;;;;;;4996622;28;20195;-83
2022/02/28 05:27:51;;;;;;;26.52;24.52;;;;;;;;;;4996230;28;20652;-83
2022/02/28 05:30:20;;;;;;;26.80;24.48;;;;;;;;;;4996132;28;20660;-83
2022/02/28 05:32:47;;;;;;;25.00;23.15;;;;;;;;;;4996103;28;20191;-83
2022/02/28 05:35:15;;;;;;;26.83;24.55;;;;;;;;;;4995611;28;20190;-83
2022/02/28 05:37:43;;;;;;;26.98;24.58;;;;;;;;;;4996202;28;20191;-83
2022/02/28 05:40:11;;;;;;;27.58;24.98;;;;;;;;;;4996234;28;20187;-83
2022/02/28 05:42:39;;;;;;;26.90;24.45;;;;;;;;;;4995947;28;20281;-82
2022/02/28 05:45:07;;;;;;;25.70;23.35;;;;;;;;;;4995345;28;20241;-82
2022/02/28 05:47:36;;;;;;;27.42;24.85;;;;;;;;;;4995832;28;20580;-83
2022/02/28 05:50:04;;;;;;;25.75;23.70;;;;;;;;;;4996039;28;20194;-83
2022/02/28 05:52:31;;;;;;;27.38;25.38;;;;;;;;;;4978884;28;20241;-86
2022/02/28 05:54:58;;;;;;;27.60;25.52;;;;;;;;;;4995347;28;20652;-82
2022/02/28 05:57:26;;;;;;;25.63;23.80;;;;;;;;;;4995722;28;20194;-82
2022/02/28 05:59:53;;;;;;;28.45;26.30;;;;;;;;;;4995314;28;20241;-82
2022/02/28 06:02:21;;;;;;;27.30;25.00;;;;;;;;;;4995250;28;20223;-82
2022/02/28 06:04:49;;;;;;;28.30;25.92;;;;;;;;;;4995678;28;20195;-82
2022/02/28 06:07:17;;;;;;;26.55;24.55;;;;;;;;;;4995159;28;20194;-82
2022/02/28 06:09:44;;;;;;;27.63;25.35;;;;;;;;;;4962071;28;20198;-82
2022/02/28 06:12:12;;;;;;;26.83;24.83;;;;;;;;;;4995399;28;20191;-82
2022/02/28 06:14:39;;;;;;;25.75;23.85;;;;;;;;;;4995326;28;20540;-82
2022/02/28 06:17:06;;;;;;;26.95;24.85;;;;;;;;;;4995431;28;20195;-81
2022/02/28 06:19:34;;;;;;;27.02;24.75;;;;;;;;;;4995114;28;20191;-84
2022/02/28 06:22:03;;;;;;;26.40;24.15;;;;;;;;;;4995288;28;20545;-82
2022/02/28 06:24:30;;;;;;;25.40;23.58;;;;;;;;;;4995494;28;20199;-82
2022/02/28 06:26:57;;;;;;;26.58;24.45;;;;;;;;;;4994955;28;20633;-83
2022/02/28 06:29:25;;;;;;;28.05;25.58;;;;;;;;;;4994995;28;20195;-83
2022/02/28 06:31:52;;;;;;;26.40;24.30;;;;;;;;;;4995056;28;20196;-84
2022/02/28 06:34:20;;;;;;;25.00;23.00;;;;;;;;;;4995253;28;20198;-83
2022/02/28 06:36:47;;;;;;;26.77;24.70;;;;;;;;;;4995260;28;20190;-84
2022/02/28 06:39:16;;;;;;;26.73;24.63;;;;;;;;;;4994921;28;20206;-83
2022/02/28 06:41:43;;;;;;;25.75;23.75;;;;;;;;;;4994878;28;20238;-83
2022/02/28 06:44:11;;;;;;;27.25;25.15;;;;;;;;;;4994801;28;20203;-84
2022/02/28 06:46:38;;;;;;;26.10;23.60;;;;;;;;;;4994668;28;20242;-83
2022/02/28 06:49:05;;;;;;;26.85;23.80;;;;;;;;;;4994819;28;20191;-83
2022/02/28 06:51:33;;;;;;;27.27;24.80;;;;;;;;;;4994837;28;20202;-84
2022/02/28 06:54:00;;;;;;;25.77;23.88;;;;;;;;;;4994896;28;20221;-83
2022/02/28 06:56:29;;;;;;;26.65;24.70;;;;;;;;;;4994694;28;20253;-83
2022/02/28 06:58:56;;;;;;;25.38;23.27;;;;;;;;;;4995229;28;20629;-85
2022/02/28 07:01:24;;;;;;;27.15;24.85;;;;;;;;;;4994013;28;20198;-87
2022/02/28 07:03:52;;;;;;;25.90;23.92;;;;;;;;;;4994987;28;20187;-88
2022/02/28 07:06:22;;;;;;;27.30;24.90;;;;;;;;;;4994905;28;20653;-83
2022/02/28 07:08:49;;;;;;;26.60;24.50;;;;;;;;;;4994561;28;20234;-83
2022/02/28 07:11:17;;;;;;;27.88;25.48;;;;;;;;;;4994211;28;20191;-83
2022/02/28 07:13:46;;;;;;;27.42;25.13;;;;;;;;;;4976793;28;20731;-83
2022/02/28 07:16:13;;;;;;;26.60;24.58;;;;;;;;;;4994161;28;20702;-82
2022/02/28 07:18:40;;;;;;;27.30;25.00;;;;;;;;;;4994597;28;20195;-83
2022/02/28 07:21:08;;;;;;;25.92;23.90;;;;;;;;;;4994247;28;20652;-81
2022/02/28 07:23:35;;;;;;;26.80;24.63;;;;;;;;;;4994533;28;20233;-83
2022/02/28 07:26:03;;;;;;;25.88;23.60;;;;;;;;;;4994692;28;20241;-83
2022/02/28 07:28:30;;;;;;;26.58;24.17;;;;;;;;;;4994454;28;20195;-83
2022/02/28 07:30:59;;;;;;;25.95;23.95;;;;;;;;;;4994442;28;20187;-82
2022/02/28 07:33:26;;;;;;;25.20;23.20;;;;;;;;;;4994183;28;20194;-83
2022/02/28 07:35:54;;;;;;;26.70;24.50;;;;;;;;;;4993878;28;20245;-83
2022/02/28 07:38:21;;;;;;;23.13;20.80;;;;;;;;;;4994402;28;20191;-81
2022/02/28 07:40:48;;;;;;;25.38;23.33;;;;;;;;;;4994199;28;20281;-82
2022/02/28 07:43:16;;;;;;;25.40;23.30;;;;;;;;;;4993901;28;20245;-82
2022/02/28 07:45:43;;;;;;;25.15;22.95;;;;;;;;;;4993399;28;20235;-82
2022/02/28 07:48:12;;;;;;;25.13;23.25;;;;;;;;;;4994252;28;20199;-80
2022/02/28 07:50:39;;;;;;;26.33;24.42;;;;;;;;;;4994174;28;20199;-82
2022/02/28 07:53:07;;;;;;;26.65;24.02;;;;;;;;;;4993818;28;20191;-82
2022/02/28 07:55:34;;;;;;;26.20;24.10;;;;;;;;;;4994030;28;20214;-82
2022/02/28 07:58:02;;;;;;;24.60;22.67;;;;;;;;;;4996755;28;20226;-81
2022/02/28 08:00:29;;;;;;;25.75;23.73;;;;;;;;;;4997664;28;20195;-82
2022/02/28 08:02:56;;;;;;;26.77;24.85;;;;;;;;;;4997327;28;20219;-83
2022/02/28 08:05:25;;;;;;;25.85;23.95;;;;;;;;;;4997978;28;20209;-82
2022/02/28 08:07:53;;;;;;;25.92;23.92;;;;;;;;;;4997552;28;20195;-81
2022/02/28 08:10:20;;;;;;;24.98;23.20;;;;;;;;;;4997816;28;20203;-82
2022/02/28 08:12:47;;;;;;;25.15;23.17;;;;;;;;;;4997584;28;20587;-82
2022/02/28 08:15:15;;;;;;;25.48;23.77;;;;;;;;;;4997160;28;20229;-82
2022/02/28 08:17:42;;;;;;;26.85;24.25;;;;;;;;;;4997167;28;20191;-82
2022/02/28 08:20:10;;;;;;;25.52;23.65;;;;;;;;;;4997248;28;20198;-82
2022/02/28 08:22:39;;;;;;;24.90;23.20;;;;;;;;;;4996435;28;20232;-83
2022/02/28 08:25:07;;;;;;;27.20;25.30;;;;;;;;;;4997413;28;20680;-83
2022/02/28 08:27:34;;;;;;;27.00;25.00;;;;;;;;;;4997834;28;20194;-84
2022/02/28 08:30:02;;;;;;;25.33;23.40;;;;;;;;;;4997803;28;20188;-85
2022/02/28 08:32:29;;;;;;;26.55;24.55;;;;;;;;;;4997929;28;20553;-87
2022/02/28 08:34:57;;;;;;;25.13;23.35;;;;;;;;;;4997915;28;20601;-86
2022/02/28 08:37:24;;;;;;;27.23;25.13;;;;;;;;;;4997896;28;20187;-86
2022/02/28 08:39:53;;;;;;;25.25;23.35;;;;;;;;;;4997097;28;20199;-85
2022/02/28 08:42:21;;;;;;;26.08;24.17;;;;;;;;;;4997244;28;20234;-86
2022/02/28 08:44:48;;;;;;;27.35;25.23;;;;;;;;;;4997238;28;20297;-84
2022/02/28 08:47:15;;;;;;;27.88;25.70;;;;;;;;;;4997329;28;20199;-84
2022/02/28 08:49:46;;;;;;;27.65;25.33;;;;;;;;;;4997441;28;20199;-83
2022/02/28 08:52:13;;;;;;;26.30;24.08;;;;;;;;;;4997590;28;20195;-83
2022/02/28 08:54:41;;;;;;;24.70;23.00;;;;;;;;;;4997343;28;20645;-84
2022/02/28 08:57:09;;;;;;;26.80;24.75;;;;;;;;;;4980360;28;20195;-84
2022/02/28 08:59:37;;;;;;;26.42;24.52;;;;;;;;;;4997067;28;20636;-84
2022/02/28 09:02:05;;;;;;;26.50;24.52;;;;;;;;;;4996746;28;20257;-83
2022/02/28 09:04:32;;;;;;;26.38;24.48;;;;;;;;;;4997192;28;20265;-84
2022/02/28 09:07:00;;;;;;;26.73;24.73;;;;;;;;;;4997154;28;20191;-83
2022/02/28 09:09:27;;;;;;;26.30;24.50;;;;;;;;;;4995648;28;20226;-84
2022/02/28 09:11:55;;;;;;;27.15;25.10;;;;;;;;;;4979530;28;20261;-83
2022/02/28 09:14:24;;;;;;;26.50;24.60;;;;;;;;;;4979218;28;20235;-84
2022/02/28 09:16:51;;;;;;;27.38;25.48;;;;;;;;;;4996941;28;20191;-84
2022/02/28 09:19:19;;;;;;;27.20;25.20;;;;;;;;;;4997272;28;20203;-84
2022/02/28 09:21:46;;;;;;;26.77;24.90;;;;;;;;;;4997098;28;20198;-83
2022/02/28 09:24:15;;;;;;;26.50;24.60;;;;;;;;;;4979718;28;20219;-83
2022/02/28 09:26:43;;;;;;;26.80;24.90;;;;;;;;;;4979699;28;20250;-84
2022/02/28 09:29:10;;;;;;;27.42;25.38;;;;;;;;;;4996180;28;21085;-83
2022/02/28 09:31:39;;;;;;;28.00;26.00;;;;;;;;;;4996897;28;20198;-83
2022/02/28 09:34:07;;;;;;;27.15;25.15;;;;;;;;;;4978797;28;20202;-83
2022/02/28 09:36:34;;;;;;;26.15;24.38;;;;;;;;;;4996816;28;20198;-83
2022/02/28 09:39:01;;;;;;;27.15;24.75;;;;;;;;;;4996185;28;20191;-84
2022/02/28 09:41:30;;;;;;;27.17;24.83;;;;;;;;;;4996794;28;20234;-84
2022/02/28 09:43:57;;;;;;;27.90;25.60;;;;;;;;;;4996220;28;20277;-83
2022/02/28 09:46:25;;;;;;;27.13;25.10;;;;;;;;;;4996079;28;20246;-84
2022/02/28 09:48:55;;;;;;;28.17;25.88;;;;;;;;;;4996542;28;20271;-83
2022/02/28 09:51:22;;;;;;;25.17;23.42;;;;;;;;;;4996118;28;20199;-88
2022/02/28 09:53:50;;;;;;;26.60;24.80;;;;;;;;;;4996077;28;20199;-84
2022/02/28 09:56:23;;;;;;;27.55;25.55;;;;;;;;;;4995177;28;20195;-81
2022/02/28 09:58:51;;;;;;;27.42;25.23;;;;;;;;;;4977821;28;20683;-83
2022/02/28 10:01:18;;;;;;;26.38;24.55;;;;;;;;;;4995918;28;20592;-80
2022/02/28 10:03:46;;;;;;;27.52;25.52;;;;;;;;;;4995590;28;20273;-83
2022/02/28 10:06:14;;;;;;;26.98;24.88;;;;;;;;;;4996592;28;20195;-84
2022/02/28 10:08:42;;;;;;;27.33;25.17;;;;;;;;;;4996290;28;20282;-85
2022/02/28 10:11:25;;;;;;;27.05;25.05;;;;;;;;;;4995924;28;20191;-85
2022/02/28 10:13:52;;;;;;;26.13;24.25;;;;;;;;;;4993192;28;20636;-84
2022/02/28 10:16:30;;;;;;;28.10;25.85;;;;;;;;;;4978421;28;20281;-83
2022/02/28 10:18:57;;;;;;;25.83;24.08;;;;;;;;;;4996011;28;20186;-85
2022/02/28 10:21:40;;;;;;;26.52;24.42;;;;;;;;;;4995585;28;20549;-82
2022/02/28 10:24:10;;;;;;;27.17;25.08;;;;;;;;;;4993062;28;20230;-83
2022/02/28 10:26:41;;;;;;;26.88;25.08;;;;;;;;;;4995378;28;20201;-82
2022/02/28 10:29:09;;;;;;;28.25;26.25;;;;;;;;;;4995354;28;20187;-81
2022/02/28 10:31:38;;;;;;;27.05;24.95;;;;;;;;;;4995169;28;20187;-82
2022/02/28 10:34:20;;;;;;;26.10;24.40;;;;;;;;;;4995294;28;20194;-82
2022/02/28 10:36:48;;;;;;;27.63;25.67;;;;;;;;;;4992720;28;20238;-83
2022/02/28 10:39:24;;;;;;;27.98;26.08;;;;;;;;;;4995182;28;20202;-82
2022/02/28 10:41:52;;;;;;;26.80;25.00;;;;;;;;;;4994982;28;20624;-83
2022/02/28 10:44:19;;;;;;;28.55;26.35;;;;;;;;;;4994855;28;20219;-82
2022/02/28 10:46:48;;;;;;;26.50;24.58;;;;;;;;;;4956608;29;20321;-82
2022/02/28 10:49:17;;;;;;;26.67;24.88;;;;;;;;;;4955390;29;20207;-83
2022/02/28 10:51:45;;;;;;;27.83;25.50;;;;;;;;;;4956326;29;20196;-83
2022/02/28 10:54:20;;;;;;;26.45;24.48;;;;;;;;;;4956709;28;20634;-83
2022/02/28 10:56:55;;;;;;;25.70;23.90;;;;;;;;;;4956080;29;20192;-83
2022/02/28 10:59:23;;;;;;;26.02;24.20;;;;;;;;;;4956578;28;20191;-83
2022/02/28 11:01:52;;;;;;;27.75;25.75;;;;;;;;;;4955010;29;20188;-82
2022/02/28 11:04:30;;;;;;;25.27;23.38;;;;;;;;;;4956479;28;20224;-83
2022/02/28 11:06:57;;;;;;;26.63;24.77;;;;;;;;;;4955899;29;20725;-82
2022/02/28 11:09:34;;;;;;;27.27;25.17;;;;;;;;;;4956086;29;20199;-83
2022/02/28 11:12:17;;;;;;;26.85;24.98;;;;;;;;;;4956205;28;20288;-83
2022/02/28 11:14:47;;;;;;;27.27;25.20;;;;;;;;;;4956113;28;20641;-83
2022/02/28 11:17:14;;;;;;;26.30;24.50;;;;;;;;;;4955278;29;20192;-83
2022/02/28 11:19:42;;;;;;;28.60;26.60;;;;;;;;;;4955806;29;20281;-83
2022/02/28 11:22:10;;;;;;;27.13;25.33;;;;;;;;;;4955604;28;20204;-82
2022/02/28 11:24:39;;;;;;;28.80;26.50;;;;;;;;;;4955855;28;20219;-83
2022/02/28 11:27:07;;;;;;;28.15;26.02;;;;;;;;;;4955673;29;20287;-83
2022/02/28 11:29:34;;;;;;;27.42;25.23;;;;;;;;;;4955972;29;20196;-83
2022/02/28 11:32:02;;;;;;;27.00;25.00;;;;;;;;;;4955062;28;20196;-83
2022/02/28 11:34:30;;;;;;;26.52;24.65;;;;;;;;;;4956186;29;20220;-83
2022/02/28 11:37:00;;;;;;;27.83;25.88;;;;;;;;;;4956005;29;20199;-84
2022/02/28 11:39:30;;;;;;;28.98;26.73;;;;;;;;;;4955958;28;20528;-84
2022/02/28 11:41:59;;;;;;;26.38;24.48;;;;;;;;;;4955715;29;20291;-83
2022/02/28 11:44:27;;;;;;;27.50;25.48;;;;;;;;;;4956744;28;20248;-84
2022/02/28 11:47:01;;;;;;;28.08;26.17;;;;;;;;;;4994578;28;20357;-83
2022/02/28 11:49:28;;;;;;;27.55;25.55;;;;;;;;;;4977078;28;20206;-83
2022/02/28 11:51:56;;;;;;;28.05;26.25;;;;;;;;;;4994205;28;20187;-84
2022/02/28 11:54:28;;;;;;;28.20;26.30;;;;;;;;;;4994429;28;20202;-84
2022/02/28 11:56:58;;;;;;;28.40;25.98;;;;;;;;;;4994834;28;20191;-82
2022/02/28 11:59:40;;;;;;;27.35;25.52;;;;;;;;;;4977208;28;20206;-83
2022/02/28 12:02:11;;;;;;;26.48;24.63;;;;;;;;;;4994441;28;20661;-84
2022/02/28 12:04:41;;;;;;;26.90;25.05;;;;;;;;;;4994123;28;20225;-82
2022/02/28 12:07:14;;;;;;;26.85;24.77;;;;;;;;;;4994584;28;20202;-83
2022/02/28 12:09:50;;;;;;;26.95;25.05;;;;;;;;;;4994080;28;20202;-81
2022/02/28 12:12:19;;;;;;;26.65;24.83;;;;;;;;;;4994278;28;20194;-78
2022/02/28 12:15:05;;;;;;;26.55;24.75;;;;;;;;;;4993436;28;20203;-86
2022/02/28 12:17:51;;;;;;;27.52;25.63;;;;;;;;;;4994020;28;20198;-81
2022/02/28 12:20:20;;;;;;;27.70;25.70;;;;;;;;;;4993589;28;20246;-83
2022/02/28 12:23:08;;;;;;;27.05;25.23;;;;;;;;;;4993905;28;20191;-83
2022/02/28 12:25:36;;;;;;;25.65;23.95;;;;;;;;;;4993924;28;20242;-83
2022/02/28 12:28:15;;;;;;;25.42;23.63;;;;;;;;;;4993726;28;20195;-82
2022/02/28 12:30:48;;;;;;;26.88;24.95;;;;;;;;;;4993698;28;20191;-83
2022/02/28 12:33:18;;;;;;;26.80;24.95;;;;;;;;;;4993363;28;20206;-82
2022/02/28 12:35:54;;;;;;;26.63;24.73;;;;;;;;;;4993778;28;20191;-82
2022/02/28 12:38:22;;;;;;;28.30;25.60;;;;;;;;;;4993914;28;20203;-81
2022/02/28 12:40:50;;;;;;;27.02;25.02;;;;;;;;;;4993840;28;20230;-82
2022/02/28 12:43:18;;;;;;;26.88;24.98;;;;;;;;;;4995382;28;20195;-82
2022/02/28 12:45:47;;;;;;;27.77;25.70;;;;;;;;;;4997011;28;20334;-82
2022/02/28 12:48:17;;;;;;;27.25;25.33;;;;;;;;;;4980316;28;20194;-82
2022/02/28 12:50:48;;;;;;;27.60;25.65;;;;;;;;;;4997038;28;20197;-82
2022/02/28 12:53:16;;;;;;;27.33;25.50;;;;;;;;;;4997095;28;20876;-83
2022/02/28 12:55:53;;;;;;;27.73;25.83;;;;;;;;;;4997259;28;20576;-82
2022/02/28 12:58:21;;;;;;;28.77;26.67;;;;;;;;;;4997071;28;20198;-81
2022/02/28 13:00:49;;;;;;;27.25;25.25;;;;;;;;;;4996887;28;20446;-82
2022/02/28 13:03:18;;;;;;;28.05;26.10;;;;;;;;;;4996811;28;20911;-82
2022/02/28 13:05:58;;;;;;;29.30;27.15;;;;;;;;;;4997260;28;20238;-82
2022/02/28 13:08:26;;;;;;;28.17;26.17;;;;;;;;;;4996752;28;20191;-81
2022/02/28 13:11:09;;;;;;;28.30;26.40;;;;;;;;;;4996824;28;20575;-83
2022/02/28 13:13:36;;;;;;;27.58;25.75;;;;;;;;;;4996770;28;20434;-82
2022/02/28 13:16:04;;;;;;;27.87;25.83;;;;;;;;;;4979481;28;20206;-82
2022/02/28 13:18:33;;;;;;;28.10;26.20;;;;;;;;;;4996183;28;20442;-82
2022/02/28 13:21:00;;;;;;;26.63;24.87;;;;;;;;;;4996547;28;20484;-82
2022/02/28 13:23:28;;;;;;;26.75;24.98;;;;;;;;;;4996335;28;20462;-84
2022/02/28 13:25:56;;;;;;;26.23;24.23;;;;;;;;;;4996625;28;20194;-80
2022/02/28 13:28:34;;;;;;;26.33;24.70;;;;;;;;;;4996792;28;20508;-82
2022/02/28 13:31:02;;;;;;;26.87;25.17;;;;;;;;;;4996418;28;20230;-82
2022/02/28 13:33:31;;;;;;;26.97;25.07;;;;;;;;;;4996072;28;20832;-82
2022/02/28 13:36:00;;;;;;;28.10;26.20;;;;;;;;;;4979508;28;20511;-81
2022/02/28 13:38:27;;;;;;;28.48;26.58;;;;;;;;;;4996608;28;20496;-82
2022/02/28 13:40:55;;;;;;;27.23;25.43;;;;;;;;;;4979378;28;20230;-82
2022/02/28 13:43:29;;;;;;;27.37;25.47;;;;;;;;;;4995925;28;20412;-82
2022/02/28 13:45:58;;;;;;;26.90;25.00;;;;;;;;;;4978614;28;20501;-82
2022/02/28 13:48:26;;;;;;;26.73;24.98;;;;;;;;;;4996391;28;20202;-81
2022/02/28 13:50:54;;;;;;;26.63;24.92;;;;;;;;;;4996611;28;20191;-81
2022/02/28 13:53:23;;;;;;;26.80;24.97;;;;;;;;;;4995942;28;20676;-83
2022/02/28 13:55:52;;;;;;;25.95;24.25;;;;;;;;;;4995655;28;20432;-82
2022/02/28 13:58:27;;;;;;;26.60;24.95;;;;;;;;;;4995444;28;20195;-83
2022/02/28 14:00:55;;;;;;;27.47;25.77;;;;;;;;;;4979218;28;20190;-83
2022/02/28 14:03:24;;;;;;;26.70;24.90;;;;;;;;;;4996189;28;20408;-81
2022/02/28 14:05:54;;;;;;;27.07;25.30;;;;;;;;;;4996200;28;20548;-82
2022/02/28 14:08:22;;;;;;;25.87;24.17;;;;;;;;;;4996150;28;20421;-82
2022/02/28 14:10:52;;;;;;;25.50;23.80;;;;;;;;;;4995662;28;20449;-83
2022/02/28 14:13:21;;;;;;;25.92;24.02;;;;;;;;;;4996241;28;20836;-83
2022/02/28 14:15:49;;;;;;;25.60;23.90;;;;;;;;;;4996156;28;20191;-83
2022/02/28 14:18:17;;;;;;;26.05;24.25;;;;;;;;;;4995868;28;20457;-82
2022/02/28 14:20:45;;;;;;;26.67;24.87;;;;;;;;;;4995971;28;20198;-82
2022/02/28 14:23:13;;;;;;;27.25;25.45;;;;;;;;;;4995762;28;20450;-81